createdAt,value
2022-11-02T00:00:51.572Z,3.15
2022-11-02T00:03:45.933Z,2.50
2022-11-02T00:14:24.269Z,2.85
2022-11-02T00:28:44.807Z,2.50
2022-11-02T00:31:29.528Z,2.47
2022-11-02T00:34:03.380Z,3.00
2022-11-02T00:36:36.309Z,2.85
2022-11-02T00:39:09.994Z,3.28
2022-11-02T00:41:46.342Z,3.97
2022-11-02T00:44:16.241Z,2.80
2022-11-02T00:47:13.422Z,3.05
2022-11-02T00:49:47.777Z,2.78
2022-11-02T00:52:17.979Z,2.60
2022-11-02T00:54:57.894Z,2.97
2022-11-02T00:57:30.445Z,3.83
2022-11-02T01:00:59.067Z,2.88
2022-11-02T01:04:09.624Z,2.97
2022-11-02T01:06:44.238Z,2.95
2022-11-02T01:09:17.668Z,2.58
2022-11-02T01:11:52.738Z,3.25
2022-11-02T01:14:26.071Z,3.00
2022-11-02T01:17:01.502Z,4.15
2022-11-02T01:19:39.107Z,3.22
2022-11-02T01:22:18.125Z,2.53
2022-11-02T01:25:05.607Z,2.88
2022-11-02T01:27:41.492Z,2.78
2022-11-02T01:30:18.013Z,3.80
2022-11-02T01:33:03.888Z,2.72
2022-11-02T01:35:41.524Z,3.78
2022-11-02T01:38:13.988Z,2.53
2022-11-02T01:40:49.587Z,2.90
2022-11-02T01:43:40.777Z,2.47
2022-11-02T01:46:12.720Z,2.50
2022-11-02T01:49:01.516Z,2.75
2022-11-02T01:52:02.145Z,3.13
2022-11-02T01:54:40.556Z,4.72
2022-11-02T01:57:13.450Z,2.90
2022-11-02T01:59:50.737Z,4.05
2022-11-02T02:02:34.145Z,3.35
2022-11-02T02:05:18.526Z,2.90
2022-11-02T02:07:52.007Z,3.00
2022-11-02T02:10:23.352Z,2.70
2022-11-02T02:12:59.923Z,3.00
2022-11-02T02:15:48.224Z,2.55
2022-11-02T02:18:36.426Z,2.70
2022-11-02T02:21:52.287Z,2.30
2022-11-02T02:27:46.310Z,2.63
2022-11-02T02:30:18.511Z,3.05
2022-11-02T02:33:06.048Z,3.33
2022-11-02T02:35:53.791Z,3.17
2022-11-02T02:38:34.340Z,2.35
2022-11-02T02:41:13.053Z,2.55
2022-11-02T02:43:51.007Z,4.03
2022-11-02T02:46:34.507Z,2.75
2022-11-02T02:49:07.885Z,2.50
2022-11-02T02:51:40.673Z,2.50
2022-11-02T02:54:22.285Z,2.47
2022-11-02T02:57:06.103Z,3.00
2022-11-02T02:59:51.615Z,2.50
2022-11-02T03:02:37.701Z,2.58
2022-11-02T03:05:28.278Z,2.65
2022-11-02T03:08:05.961Z,2.90
2022-11-02T03:10:52.151Z,2.63
2022-11-02T03:13:37.253Z,3.03
2022-11-02T03:16:32.487Z,2.70
2022-11-02T03:19:22.174Z,3.05
2022-11-02T03:22:07.712Z,3.55
2022-11-02T03:25:02.197Z,3.30
2022-11-02T03:27:49.839Z,2.40
2022-11-02T03:30:28.514Z,2.60
2022-11-02T03:33:20.117Z,3.17
2022-11-02T03:35:58.521Z,2.85
2022-11-02T03:38:43.193Z,3.25
2022-11-02T03:41:22.013Z,2.90
2022-11-02T03:44:00.147Z,2.90
2022-11-02T03:46:36.191Z,2.92
2022-11-02T03:49:17.461Z,5.28
2022-11-02T03:51:50.757Z,3.28
2022-11-02T03:54:50.877Z,4.07
2022-11-02T03:57:31.765Z,3.70
2022-11-02T04:00:35.444Z,2.85
2022-11-02T04:03:13.729Z,3.67
2022-11-02T04:05:53.193Z,3.63
2022-11-02T04:08:44.217Z,2.97
2022-11-02T04:11:38.743Z,3.40
2022-11-02T04:14:32.611Z,3.28
2022-11-02T04:17:22.184Z,2.80
2022-11-02T04:20:02.640Z,3.47
2022-11-02T04:22:54.371Z,3.72
2022-11-02T04:25:27.721Z,2.83
2022-11-02T04:28:23.293Z,2.50
2022-11-02T04:31:02.358Z,3.17
2022-11-02T04:33:41.238Z,3.05
2022-11-02T04:36:16.863Z,2.80
2022-11-02T04:38:54.361Z,3.10
2022-11-02T04:41:43.816Z,2.97
2022-11-02T04:44:41.531Z,2.70
2022-11-02T04:47:21.479Z,6.53
2022-11-02T04:49:53.614Z,3.70
2022-11-02T04:52:25.817Z,4.13
2022-11-02T04:55:01.532Z,5.68
2022-11-02T05:00:08.758Z,4.40
2022-11-02T05:02:38.626Z,3.50
2022-11-02T05:05:13.987Z,2.95
2022-11-02T05:40:18.116Z,4.68
2022-11-02T07:14:46.562Z,2.83
2022-11-02T07:46:17.629Z,2.73
2022-11-02T08:17:32.109Z,2.13
2022-11-02T09:20:06.142Z,2.72
2022-11-02T09:51:27.314Z,3.13
2022-11-02T10:22:42.265Z,2.97
2022-11-02T11:25:41.887Z,2.05
2022-11-02T13:03:05.201Z,2.15
2022-11-02T13:06:05.439Z,2.78
2022-11-02T13:09:09.702Z,2.60
2022-11-02T13:12:11.657Z,2.53
2022-11-02T13:15:29.311Z,3.05
2022-11-02T13:18:54.490Z,3.63
2022-11-02T13:22:05.603Z,3.65
2022-11-02T13:24:59.877Z,4.32
2022-11-02T13:27:41.664Z,4.00
2022-11-02T13:33:54.451Z,4.38
2022-11-02T13:40:09.664Z,5.28
2022-11-02T13:44:05.252Z,4.30
2022-11-02T13:48:16.617Z,3.30
2022-11-02T13:51:10.121Z,5.40
2022-11-02T13:54:10.479Z,5.60
2022-11-02T14:04:12.462Z,5.05
2022-11-02T14:07:08.207Z,5.75
2022-11-02T14:10:01.790Z,4.63
2022-11-02T14:13:40.546Z,5.10
2022-11-02T14:17:27.183Z,4.82
2022-11-02T14:21:14.521Z,6.20
2022-11-02T14:24:24.429Z,7.03
2022-11-02T14:27:31.504Z,6.05
2022-11-02T14:30:54.285Z,6.45
2022-11-02T14:34:14.152Z,5.57
2022-11-02T14:38:17.292Z,6.00
2022-11-02T14:41:42.432Z,6.40
2022-11-02T14:44:38.449Z,6.37
2022-11-02T14:47:21.633Z,6.43
2022-11-02T14:50:30.768Z,8.25
2022-11-02T14:53:16.854Z,7.38
2022-11-02T14:56:14.937Z,6.07
2022-11-02T14:59:41.650Z,6.40
2022-11-02T15:02:55.411Z,5.38
2022-11-02T15:06:20.562Z,6.90
2022-11-02T15:14:05.867Z,5.53
2022-11-02T15:22:03.965Z,6.05
2022-11-02T15:28:44.530Z,6.53
2022-11-02T15:32:04.685Z,5.47
2022-11-02T15:35:56.463Z,5.97
2022-11-02T15:42:54.947Z,5.88
2022-11-02T15:47:06.473Z,6.18
2022-11-02T15:50:10.960Z,4.70
2022-11-02T15:53:23.328Z,5.68
2022-11-02T15:57:22.865Z,5.88
2022-11-02T16:00:21.925Z,5.32
2022-11-02T16:03:18.551Z,5.15
2022-11-02T16:10:26.268Z,7.65
2022-11-02T16:19:14.907Z,5.40
2022-11-02T16:22:13.525Z,4.80
2022-11-02T16:25:16.157Z,5.53
2022-11-02T16:28:45.788Z,5.78
2022-11-02T16:31:24.252Z,4.87
2022-11-02T16:39:48.802Z,4.28
2022-11-02T16:42:32.954Z,5.43
2022-11-02T16:45:42.290Z,4.57
2022-11-02T16:49:20.811Z,4.45
2022-11-02T16:52:03.957Z,5.72
2022-11-02T16:54:37.013Z,6.82
2022-11-02T16:57:13.879Z,4.15
2022-11-02T17:00:07.810Z,4.70
2022-11-02T17:02:42.642Z,4.53
2022-11-02T17:05:22.699Z,5.57
2022-11-02T17:08:38.086Z,4.30
2022-11-02T17:11:18.557Z,4.20
2022-11-02T17:14:02.202Z,5.65
2022-11-02T17:19:49.067Z,4.83
2022-11-02T17:22:32.498Z,4.55
2022-11-02T17:25:34.897Z,4.05
2022-11-02T17:28:40.894Z,4.55
2022-11-02T17:31:32.473Z,4.03
2022-11-02T17:34:18.419Z,4.28
2022-11-02T17:36:55.872Z,5.68
2022-11-02T17:39:32.654Z,4.80
2022-11-02T17:42:21.610Z,4.88
2022-11-02T17:44:50.832Z,4.18
2022-11-02T17:47:22.934Z,4.35
2022-11-02T17:50:10.003Z,4.28
2022-11-02T17:52:43.011Z,4.68
2022-11-02T17:55:22.319Z,5.07
2022-11-02T17:57:58.900Z,4.85
2022-11-02T18:00:32.115Z,4.40
2022-11-02T18:03:04.607Z,4.32
2022-11-02T18:05:39.059Z,6.80
2022-11-02T18:08:11.017Z,4.65
2022-11-02T18:10:52.155Z,4.70
2022-11-02T18:13:24.742Z,6.20
2022-11-02T18:15:58.478Z,4.97
2022-11-02T18:18:32.571Z,5.30
2022-11-02T18:21:05.391Z,4.20
2022-11-02T18:23:36.436Z,4.32
2022-11-02T18:26:09.473Z,4.88
2022-11-02T18:28:46.262Z,4.55
2022-11-02T18:31:17.930Z,4.55
2022-11-02T18:34:37.084Z,4.68
2022-11-02T18:37:14.905Z,4.32
2022-11-02T18:39:49.572Z,5.10
2022-11-02T18:42:20.836Z,4.35
2022-11-02T18:44:53.151Z,4.22
2022-11-02T18:47:25.701Z,4.25
2022-11-02T18:50:05.490Z,5.95
2022-11-02T18:52:38.025Z,4.65
2022-11-02T18:55:10.467Z,5.35
2022-11-02T19:00:17.092Z,4.15
2022-11-02T19:02:48.181Z,4.38
2022-11-02T19:06:16.423Z,4.40
2022-11-02T19:09:06.045Z,4.93
2022-11-02T19:11:40.691Z,5.30
2022-11-02T19:14:12.806Z,4.40
2022-11-02T19:16:45.133Z,4.30
2022-11-02T19:19:14.846Z,4.38
2022-11-02T19:21:47.734Z,6.13
2022-11-02T19:24:21.998Z,4.50
2022-11-02T19:26:54.537Z,5.15
2022-11-02T19:29:36.946Z,5.20
2022-11-02T19:32:10.483Z,4.30
2022-11-02T19:34:43.392Z,4.63
2022-11-02T19:37:17.460Z,4.53
2022-11-02T19:39:48.994Z,4.97
2022-11-02T19:42:20.822Z,5.55
2022-11-02T19:44:57.974Z,4.72
2022-11-02T19:47:33.004Z,5.47
2022-11-02T19:50:05.482Z,6.22
2022-11-02T19:52:37.382Z,4.88
2022-11-02T19:55:09.436Z,4.50
2022-11-02T19:57:41.109Z,5.07
2022-11-02T20:00:13.219Z,4.50
2022-11-02T20:02:51.988Z,4.55
2022-11-02T20:05:24.954Z,4.40
2022-11-02T20:08:05.929Z,4.38
2022-11-02T20:10:37.948Z,4.03
2022-11-02T20:13:09.170Z,5.63
2022-11-02T20:15:46.917Z,4.85
2022-11-02T20:18:20.060Z,5.13
2022-11-02T20:21:07.555Z,4.32
2022-11-02T20:23:54.114Z,4.57
2022-11-02T20:26:55.240Z,5.15
2022-11-02T20:30:13.126Z,5.55
2022-11-02T20:32:54.618Z,5.80
2022-11-02T20:40:47.491Z,4.10
2022-11-02T20:43:50.235Z,5.43
2022-11-02T20:46:40.092Z,4.95
2022-11-02T20:49:22.181Z,6.40
2022-11-02T20:52:00.580Z,6.15
2022-11-02T20:54:39.017Z,4.53
2022-11-02T20:57:17.971Z,4.50
2022-11-02T20:59:48.733Z,4.40
2022-11-02T21:02:23.616Z,4.93
2022-11-02T21:05:02.503Z,5.35
2022-11-02T21:07:33.951Z,4.55
2022-11-02T21:10:12.845Z,4.22
2022-11-02T21:13:03.612Z,4.93
2022-11-02T21:15:38.046Z,4.65
2022-11-02T21:18:13.365Z,5.18
2022-11-02T21:20:46.659Z,5.22
2022-11-02T21:23:20.451Z,5.43
2022-11-02T21:26:04.778Z,5.15
2022-11-02T21:28:39.302Z,4.70
2022-11-02T21:31:14.369Z,4.75
2022-11-02T21:33:58.106Z,4.97
2022-11-02T21:36:30.719Z,5.18
2022-11-02T21:39:04.337Z,4.75
2022-11-02T21:41:39.139Z,5.03
2022-11-02T21:44:13.149Z,5.28
2022-11-02T21:46:44.637Z,4.57
2022-11-02T21:49:16.848Z,6.07
2022-11-02T21:51:46.822Z,5.22
2022-11-02T21:54:18.515Z,4.68
2022-11-02T21:56:59.550Z,4.72
2022-11-02T22:04:34.807Z,5.30
2022-11-02T22:07:10.304Z,4.22
2022-11-02T22:09:42.320Z,4.82
2022-11-02T22:12:30.609Z,5.53
2022-11-02T22:15:10.825Z,4.70
2022-11-02T22:17:50.041Z,4.28
2022-11-02T22:20:30.086Z,5.78
2022-11-02T23:57:31.838Z,6.15
